createdAt,value
2018-03-16T00:00:00.039Z,71.20
2018-03-16T00:02:26.050Z,71.90
2018-03-16T00:04:51.996Z,71.90
2018-03-16T00:07:18.152Z,71.90
2018-03-16T00:09:44.847Z,71.60
2018-03-16T00:12:10.976Z,71.60
2018-03-16T00:14:36.949Z,72.10
2018-03-16T00:17:02.909Z,72.50
2018-03-16T00:19:28.929Z,72.40
2018-03-16T00:21:55.138Z,72.30
2018-03-16T00:24:21.241Z,72.30
2018-03-16T00:26:47.201Z,72.10
2018-03-16T00:29:13.200Z,71.70
2018-03-16T00:31:39.230Z,71.50
2018-03-16T00:34:05.223Z,71.40
2018-03-16T00:36:31.960Z,71.00
2018-03-16T00:38:58.873Z,71.10
2018-03-16T00:41:25.064Z,71.00
2018-03-16T00:43:51.149Z,71.00
2018-03-16T00:46:17.877Z,70.80
2018-03-16T00:48:43.917Z,70.70
2018-03-16T00:51:09.893Z,71.30
2018-03-16T00:53:35.900Z,70.60
2018-03-16T00:56:01.915Z,70.40
2018-03-16T00:58:28.287Z,70.20
2018-03-16T01:00:54.307Z,70.70
2018-03-16T01:03:20.272Z,70.70
2018-03-16T01:05:46.660Z,70.60
2018-03-16T01:08:13.203Z,70.70
2018-03-16T01:10:39.318Z,71.00
2018-03-16T01:13:05.469Z,71.00
2018-03-16T01:15:31.496Z,70.80
2018-03-16T01:17:57.454Z,71.00
2018-03-16T01:20:23.449Z,71.20
2018-03-16T01:22:50.153Z,70.90
2018-03-16T01:25:16.156Z,70.90
2018-03-16T01:27:42.151Z,70.90
2018-03-16T01:30:08.138Z,71.80
2018-03-16T01:32:34.105Z,72.40
2018-03-16T01:35:00.062Z,72.80
2018-03-16T01:37:26.624Z,73.20
2018-03-16T01:39:52.599Z,73.70
2018-03-16T01:42:18.617Z,73.90
2018-03-16T01:44:44.586Z,74.10
2018-03-16T01:47:10.548Z,74.30
2018-03-16T01:49:36.594Z,74.50
2018-03-16T01:52:02.585Z,75.00
2018-03-16T01:54:29.350Z,75.00
2018-03-16T01:56:55.306Z,75.10
2018-03-16T01:59:21.450Z,75.40
2018-03-16T02:01:47.445Z,75.70
2018-03-16T02:04:13.436Z,76.10
2018-03-16T02:06:39.420Z,75.80
2018-03-16T02:09:05.416Z,75.50
2018-03-16T02:11:31.373Z,74.80
2018-03-16T02:13:58.268Z,73.40
2018-03-16T02:16:24.307Z,73.30
2018-03-16T02:18:50.408Z,73.10
2018-03-16T02:21:16.428Z,72.90
2018-03-16T02:23:42.412Z,73.10
2018-03-16T02:26:08.417Z,73.40
2018-03-16T02:28:34.437Z,73.30
2018-03-16T02:31:00.538Z,72.90
2018-03-16T02:33:26.542Z,73.50
2018-03-16T02:35:52.601Z,72.50
2018-03-16T02:38:18.592Z,73.70
2018-03-16T02:40:44.605Z,74.00
2018-03-16T02:43:10.563Z,74.20
2018-03-16T02:45:36.657Z,74.00
2018-03-16T02:48:02.640Z,73.50
2018-03-16T02:50:29.363Z,73.40
2018-03-16T02:52:55.348Z,73.40
2018-03-16T02:55:21.380Z,73.30
2018-03-16T02:57:47.364Z,73.40
2018-03-16T03:00:14.132Z,73.20
2018-03-16T03:02:41.039Z,73.30
2018-03-16T03:05:07.788Z,73.20
2018-03-16T03:07:34.530Z,73.10
2018-03-16T03:10:01.276Z,73.00
2018-03-16T03:12:27.424Z,72.90
2018-03-16T03:14:53.483Z,72.70
2018-03-16T03:17:19.456Z,72.50
2018-03-16T03:19:45.579Z,72.40
2018-03-16T03:22:11.546Z,72.60
2018-03-16T03:24:37.544Z,72.20
2018-03-16T03:27:03.516Z,72.50
2018-03-16T03:29:29.520Z,72.40
2018-03-16T03:31:55.484Z,72.40
2018-03-16T03:34:21.473Z,72.10
2018-03-16T03:36:47.460Z,71.90
2018-03-16T03:39:13.439Z,71.80
2018-03-16T03:41:40.189Z,72.00
2018-03-16T03:44:06.878Z,72.00
2018-03-16T03:46:32.876Z,71.90
2018-03-16T03:48:58.860Z,71.90
2018-03-16T03:51:24.976Z,71.90
2018-03-16T03:53:50.956Z,72.80
2018-03-16T03:56:16.924Z,72.20
2018-03-16T03:58:42.919Z,72.20
2018-03-16T04:01:08.936Z,72.30
2018-03-16T04:03:34.888Z,72.30
2018-03-16T04:06:00.893Z,72.40
2018-03-16T04:08:26.866Z,72.30
2018-03-16T04:10:52.951Z,72.30
2018-03-16T04:13:18.960Z,72.40
2018-03-16T04:15:45.086Z,72.30
2018-03-16T04:18:11.036Z,72.90
2018-03-16T04:20:37.036Z,72.90
2018-03-16T04:23:03.069Z,72.90
2018-03-16T04:25:29.075Z,72.80
2018-03-16T04:27:55.171Z,72.60
2018-03-16T04:30:21.125Z,72.60
2018-03-16T04:32:47.121Z,72.70
2018-03-16T04:35:13.067Z,72.60
2018-03-16T04:37:39.064Z,72.60
2018-03-16T04:40:05.101Z,72.90
2018-03-16T04:42:31.083Z,72.70
2018-03-16T04:44:57.827Z,72.20
2018-03-16T04:47:24.566Z,72.40
2018-03-16T04:49:51.262Z,72.20
2018-03-16T04:52:17.236Z,72.10
2018-03-16T04:54:43.237Z,72.00
2018-03-16T04:57:10.098Z,72.40
2018-03-16T04:59:36.051Z,72.40
2018-03-16T05:02:02.056Z,72.40
2018-03-16T05:04:27.999Z,72.30
2018-03-16T05:06:53.973Z,72.20
2018-03-16T05:09:20.694Z,72.80
2018-03-16T05:11:46.664Z,72.80
2018-03-16T05:14:12.920Z,72.70
2018-03-16T05:16:38.868Z,72.70
2018-03-16T05:19:05.133Z,72.80
2018-03-16T05:21:32.026Z,72.80
2018-03-16T05:23:57.995Z,73.50
2018-03-16T05:26:25.032Z,72.80
2018-03-16T05:28:51.830Z,73.30
2018-03-16T05:31:17.975Z,73.30
2018-03-16T05:33:43.923Z,73.90
2018-03-16T05:36:10.704Z,73.20
2018-03-16T05:38:39.201Z,73.10
2018-03-16T05:41:07.823Z,73.30
2018-03-16T05:43:34.551Z,74.00
2018-03-16T05:46:00.573Z,73.80
2018-03-16T05:48:26.545Z,74.10
2018-03-16T05:50:52.488Z,74.60
2018-03-16T05:53:18.512Z,74.90
2018-03-16T05:55:44.465Z,75.00
2018-03-16T05:58:11.201Z,74.80
2018-03-16T06:00:37.207Z,74.80
2018-03-16T06:03:03.218Z,74.80
2018-03-16T06:05:29.229Z,74.60
2018-03-16T06:07:55.324Z,74.60
2018-03-16T06:10:21.324Z,74.50
2018-03-16T06:12:47.414Z,74.30
2018-03-16T06:15:13.409Z,74.20
2018-03-16T06:17:39.397Z,74.70
2018-03-16T06:20:06.089Z,74.80
2018-03-16T06:22:32.088Z,74.80
2018-03-16T06:24:58.148Z,74.60
2018-03-16T06:27:24.091Z,75.30
2018-03-16T06:29:50.050Z,75.20
2018-03-16T06:32:16.045Z,75.10
2018-03-16T06:34:42.029Z,75.10
2018-03-16T06:37:08.021Z,75.00
2018-03-16T06:39:33.974Z,74.60
2018-03-16T06:42:00.114Z,74.50
2018-03-16T06:44:26.061Z,74.60
2018-03-16T06:46:52.760Z,74.50
2018-03-16T06:49:18.758Z,74.50
2018-03-16T06:51:44.724Z,74.30
2018-03-16T06:54:10.752Z,74.10
2018-03-16T06:56:36.705Z,74.10
2018-03-16T06:59:03.438Z,74.50
2018-03-16T07:01:30.160Z,74.60
2018-03-16T07:03:56.092Z,74.50
2018-03-16T07:06:22.819Z,75.00
2018-03-16T07:08:48.821Z,75.00
2018-03-16T07:11:14.787Z,75.10
2018-03-16T07:13:41.791Z,75.40
2018-03-16T07:16:07.764Z,75.40
2018-03-16T07:18:34.488Z,75.80
2018-03-16T07:21:01.195Z,75.60
2018-03-16T07:23:27.181Z,75.60
2018-03-16T07:25:53.152Z,75.50
2018-03-16T07:28:19.269Z,75.50
2018-03-16T07:30:45.236Z,75.40
2018-03-16T07:33:11.228Z,75.30
2018-03-16T07:35:37.200Z,75.60
2018-03-16T07:38:03.157Z,75.90
2018-03-16T07:40:29.160Z,75.80
2018-03-16T07:42:55.128Z,75.60
2018-03-16T07:45:22.010Z,75.60
2018-03-16T07:47:47.973Z,75.60
2018-03-16T07:50:13.982Z,75.70
2018-03-16T07:52:39.978Z,75.40
2018-03-16T07:55:05.958Z,75.70
2018-03-16T07:57:31.980Z,75.30
2018-03-16T07:59:57.937Z,76.10
2018-03-16T08:02:24.037Z,74.90
2018-03-16T08:04:50.771Z,75.20
2018-03-16T08:07:16.737Z,75.10
2018-03-16T08:09:42.681Z,75.30
2018-03-16T08:12:08.776Z,76.10
2018-03-16T08:14:34.793Z,75.90
2018-03-16T08:17:00.909Z,75.50
2018-03-16T08:19:26.876Z,76.30
2018-03-16T08:21:52.856Z,75.30
2018-03-16T08:24:18.832Z,75.20
2018-03-16T08:26:44.817Z,75.30
2018-03-16T08:29:10.857Z,75.00
2018-03-16T08:31:36.834Z,74.50
2018-03-16T08:34:03.770Z,74.60
2018-03-16T08:36:29.685Z,74.60
2018-03-16T08:38:55.697Z,75.60
2018-03-16T08:41:21.653Z,76.80
2018-03-16T08:43:47.617Z,76.40
2018-03-16T08:46:13.608Z,76.10
2018-03-16T08:48:39.584Z,75.70
2018-03-16T08:51:05.756Z,75.50
2018-03-16T08:53:31.766Z,74.80
2018-03-16T08:55:57.772Z,74.80
2018-03-16T08:58:24.509Z,73.10
2018-03-16T09:00:50.505Z,73.00
2018-03-16T09:03:16.487Z,72.50
2018-03-16T09:05:42.589Z,71.30
2018-03-16T09:08:09.348Z,70.90
2018-03-16T09:10:35.345Z,70.80
2018-03-16T09:13:01.496Z,70.10
2018-03-16T09:15:27.503Z,71.30
2018-03-16T09:17:54.252Z,71.00
2018-03-16T09:20:20.225Z,70.90
2018-03-16T09:22:46.205Z,71.10
2018-03-16T09:25:12.229Z,71.00
2018-03-16T09:27:38.199Z,70.50
2018-03-16T09:30:04.189Z,70.10
2018-03-16T09:32:30.166Z,69.90
2018-03-16T09:34:56.170Z,70.30
2018-03-16T09:37:22.139Z,71.30
2018-03-16T09:39:48.280Z,70.80
2018-03-16T09:42:14.255Z,71.40
2018-03-16T09:44:40.261Z,71.40
2018-03-16T09:47:06.212Z,71.70
2018-03-16T09:49:32.947Z,71.50
2018-03-16T09:51:58.933Z,71.40
2018-03-16T09:54:24.942Z,71.30
2018-03-16T09:56:50.959Z,70.50
2018-03-16T09:59:16.908Z,70.60
2018-03-16T10:01:42.859Z,70.20
2018-03-16T10:04:08.859Z,69.50
2018-03-16T10:06:34.836Z,69.00
2018-03-16T10:09:00.826Z,69.00
2018-03-16T10:11:26.924Z,67.00
2018-03-16T10:13:53.001Z,68.00
2018-03-16T10:16:18.984Z,67.50
2018-03-16T10:18:44.940Z,67.60
2018-03-16T10:21:10.944Z,67.80
2018-03-16T10:23:37.688Z,65.10
2018-03-16T10:26:04.405Z,65.70
2018-03-16T10:28:30.533Z,65.60
2018-03-16T10:30:56.497Z,63.50
2018-03-16T10:33:22.520Z,62.00
2018-03-16T10:35:48.592Z,62.10
2018-03-16T10:38:14.586Z,62.80
2018-03-16T10:40:40.543Z,63.00
2018-03-16T10:43:06.648Z,63.30
2018-03-16T10:45:34.024Z,63.70
2018-03-16T10:48:00.077Z,63.80
2018-03-16T10:50:27.459Z,63.60
2018-03-16T10:52:53.492Z,63.50
2018-03-16T10:55:19.889Z,63.60
2018-03-16T10:57:46.753Z,63.20
2018-03-16T11:00:12.740Z,63.10
2018-03-16T11:02:40.013Z,61.90
2018-03-16T11:05:06.007Z,61.90
2018-03-16T11:07:32.020Z,62.20
2018-03-16T11:09:58.723Z,61.90
2018-03-16T11:12:25.915Z,61.10
2018-03-16T11:14:53.352Z,61.50
2018-03-16T11:17:19.902Z,60.70
2018-03-16T11:19:46.155Z,59.10
2018-03-16T11:22:12.902Z,58.80
2018-03-16T11:24:40.813Z,59.90
2018-03-16T11:27:06.798Z,59.90
2018-03-16T11:29:33.696Z,60.70
2018-03-16T11:31:59.663Z,60.30
2018-03-16T11:34:25.732Z,61.00
2018-03-16T11:36:51.710Z,61.80
2018-03-16T11:39:18.517Z,61.80
2018-03-16T11:41:44.585Z,61.80
2018-03-16T11:44:10.562Z,61.80
2018-03-16T11:46:36.549Z,60.50
2018-03-16T11:49:02.541Z,61.00
2018-03-16T11:51:29.273Z,58.20
2018-03-16T11:53:55.405Z,58.00
2018-03-16T11:56:22.133Z,57.00
2018-03-16T11:58:48.122Z,56.90
2018-03-16T12:01:14.188Z,57.20
2018-03-16T12:03:40.168Z,57.80
2018-03-16T12:06:06.184Z,56.90
2018-03-16T12:08:32.153Z,57.40
2018-03-16T12:10:59.020Z,58.20
2018-03-16T12:13:25.013Z,58.10
2018-03-16T12:15:51.176Z,59.60
2018-03-16T12:18:17.306Z,59.70
2018-03-16T12:20:43.312Z,59.40
2018-03-16T12:23:09.288Z,58.20
2018-03-16T12:25:35.265Z,57.70
2018-03-16T12:28:01.272Z,56.30
2018-03-16T12:30:27.669Z,56.60
2018-03-16T12:32:53.801Z,57.70
2018-03-16T12:35:20.119Z,56.70
2018-03-16T12:37:46.121Z,56.40
2018-03-16T12:40:12.152Z,56.30
2018-03-16T12:42:38.156Z,57.10
2018-03-16T12:45:04.276Z,57.20
2018-03-16T12:47:30.496Z,58.10
2018-03-16T12:49:57.882Z,58.20
2018-03-16T12:52:24.106Z,58.30
2018-03-16T12:54:50.137Z,58.60
2018-03-16T12:57:16.163Z,58.10
2018-03-16T12:59:42.335Z,57.70
2018-03-16T13:02:08.431Z,58.40
2018-03-16T13:04:35.571Z,57.90
2018-03-16T13:07:01.841Z,55.50
2018-03-16T13:09:28.682Z,55.10
2018-03-16T13:11:55.172Z,55.00
2018-03-16T13:14:21.633Z,55.00
2018-03-16T13:16:48.958Z,54.30
2018-03-16T13:19:15.032Z,54.20
2018-03-16T13:21:41.068Z,55.10
2018-03-16T13:24:07.049Z,53.50
2018-03-16T13:26:33.096Z,52.10
2018-03-16T13:28:59.904Z,52.20
2018-03-16T13:31:25.905Z,52.80
2018-03-16T13:33:52.580Z,51.40
2018-03-16T13:36:18.552Z,51.80
2018-03-16T13:38:44.588Z,50.10
2018-03-16T13:41:10.584Z,50.00
2018-03-16T13:43:37.340Z,50.20
2018-03-16T13:46:03.339Z,50.10
2018-03-16T13:48:30.077Z,46.20
2018-03-16T13:50:56.794Z,44.40
2018-03-16T13:53:23.563Z,43.50
2018-03-16T13:55:49.717Z,43.40
2018-03-16T13:58:16.692Z,43.80
2018-03-16T14:00:42.743Z,44.40
2018-03-16T14:03:09.473Z,44.80
2018-03-16T14:05:36.371Z,46.20
2018-03-16T14:08:03.088Z,46.30
2018-03-16T14:10:29.118Z,46.30
2018-03-16T14:12:55.316Z,46.10
2018-03-16T14:15:22.084Z,45.00
2018-03-16T14:17:48.404Z,45.00
2018-03-16T14:20:14.657Z,45.70
2018-03-16T14:22:40.830Z,45.70
2018-03-16T14:25:06.821Z,45.90
2018-03-16T14:27:32.816Z,45.60
2018-03-16T14:29:58.802Z,46.80
2018-03-16T14:32:24.778Z,47.00
2018-03-16T14:34:50.803Z,46.40
2018-03-16T14:37:16.802Z,46.60
2018-03-16T14:39:43.509Z,45.40
2018-03-16T14:42:09.483Z,45.30
2018-03-16T14:44:35.448Z,45.10
2018-03-16T14:47:01.459Z,44.30
2018-03-16T14:49:27.411Z,43.80
2018-03-16T14:51:54.257Z,43.90
2018-03-16T14:54:20.973Z,44.50
2018-03-16T14:56:46.934Z,44.40
2018-03-16T14:59:12.943Z,44.20
2018-03-16T15:01:39.657Z,45.70
2018-03-16T15:04:05.649Z,45.70
2018-03-16T15:06:31.629Z,44.30
2018-03-16T15:08:57.729Z,41.70
2018-03-16T15:11:23.678Z,41.10
2018-03-16T15:13:50.635Z,41.90
2018-03-16T15:16:16.612Z,41.80
2018-03-16T15:18:42.600Z,41.50
2018-03-16T15:21:08.547Z,43.00
2018-03-16T15:23:34.653Z,44.00
2018-03-16T15:26:00.621Z,44.40
2018-03-16T15:28:26.606Z,44.20
2018-03-16T15:30:52.598Z,43.80
2018-03-16T15:33:18.572Z,43.90
2018-03-16T15:35:44.568Z,43.90
2018-03-16T15:38:10.545Z,44.50
2018-03-16T15:40:37.233Z,44.50
2018-03-16T15:43:03.258Z,44.50
2018-03-16T15:45:29.267Z,44.70
2018-03-16T15:47:55.289Z,44.30
2018-03-16T15:50:21.234Z,45.90
2018-03-16T15:52:47.355Z,45.70
2018-03-16T15:55:13.321Z,45.60
2018-03-16T15:57:40.177Z,44.80
2018-03-16T16:00:06.891Z,46.20
2018-03-16T16:02:32.834Z,46.20
2018-03-16T16:04:59.546Z,46.60
2018-03-16T16:07:25.532Z,46.60
2018-03-16T16:09:52.024Z,45.20
2018-03-16T16:12:18.946Z,46.70
2018-03-16T16:14:44.898Z,46.70
2018-03-16T16:17:11.578Z,47.70
2018-03-16T16:19:37.691Z,47.60
2018-03-16T16:22:03.668Z,48.00
2018-03-16T16:24:30.414Z,48.30
2018-03-16T16:26:56.379Z,48.20
2018-03-16T16:29:22.507Z,48.60
2018-03-16T16:31:48.462Z,48.50
2018-03-16T16:34:14.479Z,48.30
2018-03-16T16:36:40.429Z,48.00
2018-03-16T16:39:06.444Z,47.50
2018-03-16T16:41:32.404Z,47.80
2018-03-16T16:43:58.373Z,48.10
2018-03-16T16:46:24.510Z,48.80
2018-03-16T16:48:50.455Z,48.70
2018-03-16T16:51:17.184Z,48.30
2018-03-16T16:53:43.886Z,48.20
2018-03-16T16:56:09.938Z,48.20
2018-03-16T16:58:35.885Z,48.10
2018-03-16T17:01:01.992Z,48.00
2018-03-16T17:03:28.733Z,48.90
2018-03-16T17:05:54.732Z,48.80
2018-03-16T17:08:20.696Z,48.60
2018-03-16T17:10:46.652Z,48.70
2018-03-16T17:13:12.795Z,49.20
2018-03-16T17:15:38.802Z,49.30
2018-03-16T17:18:04.913Z,49.50
2018-03-16T17:20:30.866Z,49.90
2018-03-16T17:22:56.832Z,49.70
2018-03-16T17:25:23.610Z,50.50
2018-03-16T17:27:49.621Z,50.60
2018-03-16T17:30:26.730Z,50.90
2018-03-16T17:32:52.845Z,50.80
2018-03-16T17:35:18.826Z,51.10
2018-03-16T17:37:45.569Z,51.40
2018-03-16T17:40:12.269Z,51.70
2018-03-16T17:42:38.222Z,51.70
2018-03-16T17:45:04.934Z,51.70
2018-03-16T17:47:30.892Z,51.70
2018-03-16T17:49:57.044Z,51.70
2018-03-16T17:52:23.777Z,51.90
2018-03-16T17:54:49.753Z,51.90
2018-03-16T17:57:15.736Z,52.10
2018-03-16T17:59:42.497Z,52.20
2018-03-16T18:02:08.480Z,52.10
2018-03-16T18:04:34.464Z,51.80
2018-03-16T18:07:00.551Z,52.20
2018-03-16T18:09:26.496Z,52.10
2018-03-16T18:11:52.493Z,52.20
2018-03-16T18:14:18.593Z,52.60
2018-03-16T18:16:44.705Z,52.50
2018-03-16T18:19:11.409Z,52.80
2018-03-16T18:21:37.450Z,52.80
2018-03-16T18:24:03.404Z,53.00
2018-03-16T18:26:29.372Z,52.90
2018-03-16T18:28:55.401Z,53.00
2018-03-16T18:31:21.342Z,53.10
2018-03-16T18:33:48.066Z,53.10
2018-03-16T18:36:14.026Z,53.00
2018-03-16T18:38:40.136Z,53.00
2018-03-16T18:41:06.832Z,53.80
2018-03-16T18:43:33.564Z,54.10
2018-03-16T18:45:59.531Z,54.10
2018-03-16T18:48:26.412Z,54.80
2018-03-16T18:50:52.414Z,54.80
2018-03-16T18:53:19.179Z,55.30
2018-03-16T18:55:45.139Z,55.30
2018-03-16T18:58:11.135Z,55.40
2018-03-16T19:00:37.829Z,56.00
2018-03-16T19:03:03.793Z,55.50
2018-03-16T19:05:29.918Z,55.50
2018-03-16T19:07:55.889Z,55.70
2018-03-16T19:10:22.671Z,56.10
2018-03-16T19:12:48.632Z,56.10
2018-03-16T19:15:15.400Z,56.10
2018-03-16T19:17:49.144Z,56.10
2018-03-16T19:20:15.160Z,56.30
2018-03-16T19:22:55.358Z,56.20
2018-03-16T19:25:21.387Z,56.50
2018-03-16T19:27:47.371Z,56.60
2018-03-16T19:30:13.324Z,56.60
2018-03-16T19:32:39.339Z,56.50
2018-03-16T19:35:05.471Z,56.70
2018-03-16T19:37:32.433Z,56.70
2018-03-16T19:39:59.214Z,56.70
2018-03-16T19:42:25.226Z,56.60
2018-03-16T19:44:51.227Z,57.00
2018-03-16T19:47:17.197Z,56.30
2018-03-16T19:49:43.143Z,56.90
2018-03-16T19:52:09.112Z,56.20
2018-03-16T19:54:35.820Z,56.20
2018-03-16T19:57:01.774Z,56.20
2018-03-16T19:59:27.761Z,56.10
2018-03-16T20:01:53.700Z,56.10
2018-03-16T20:04:19.721Z,56.30
2018-03-16T20:06:45.687Z,56.40
2018-03-16T20:09:11.789Z,56.50
2018-03-16T20:11:37.736Z,56.30
2018-03-16T20:14:03.849Z,56.30
2018-03-16T20:16:29.846Z,56.20
2018-03-16T20:18:56.604Z,56.20
2018-03-16T20:21:22.580Z,56.20
2018-03-16T20:23:48.581Z,56.10
2018-03-16T20:26:14.675Z,56.00
2018-03-16T20:28:40.658Z,56.00
2018-03-16T20:31:06.649Z,56.20
2018-03-16T20:33:32.661Z,56.70
2018-03-16T20:35:58.631Z,56.20
2018-03-16T20:38:24.634Z,57.20
2018-03-16T20:40:50.637Z,57.20
2018-03-16T20:43:16.758Z,57.20
2018-03-16T20:45:42.714Z,57.60
2018-03-16T20:48:08.717Z,57.60
2018-03-16T20:50:34.725Z,57.90
2018-03-16T20:53:00.706Z,57.80
2018-03-16T20:55:27.406Z,58.10
2018-03-16T20:57:53.525Z,58.00
2018-03-16T21:00:19.549Z,57.90
2018-03-16T21:02:45.553Z,57.90
2018-03-16T21:05:11.553Z,58.10
2018-03-16T21:07:38.285Z,58.60
2018-03-16T21:10:04.265Z,58.60
2018-03-16T21:12:30.464Z,58.60
2018-03-16T21:14:56.429Z,58.50
2018-03-16T21:17:22.532Z,58.40
2018-03-16T21:19:48.490Z,58.30
2018-03-16T21:22:14.537Z,58.50
2018-03-16T21:24:40.505Z,58.50
2018-03-16T21:27:06.513Z,58.70
2018-03-16T21:29:32.474Z,59.30
2018-03-16T21:31:58.600Z,59.70
2018-03-16T21:34:24.562Z,59.70
2018-03-16T21:36:50.520Z,59.90
2018-03-16T21:39:16.510Z,60.30
2018-03-16T21:41:42.458Z,61.40
2018-03-16T21:44:08.446Z,61.10
2018-03-16T21:46:34.402Z,60.50
2018-03-16T21:49:00.533Z,60.10
2018-03-16T21:51:26.506Z,60.50
2018-03-16T21:53:53.277Z,63.00
2018-03-16T21:56:19.250Z,62.90
2018-03-16T21:58:45.241Z,64.70
2018-03-16T22:01:11.242Z,66.10
2018-03-16T22:03:37.243Z,66.50
2018-03-16T22:06:03.228Z,66.10
2018-03-16T22:08:29.208Z,66.10
2018-03-16T22:10:55.217Z,65.80
2018-03-16T22:13:21.359Z,65.20
2018-03-16T22:15:47.434Z,64.40
2018-03-16T22:18:13.397Z,64.70
2018-03-16T22:20:39.378Z,65.10
2018-03-16T22:23:05.390Z,64.90
2018-03-16T22:25:31.491Z,64.60
2018-03-16T22:27:57.489Z,66.10
2018-03-16T22:30:23.462Z,66.60
2018-03-16T22:32:49.460Z,66.10
2018-03-16T22:35:15.420Z,67.10
2018-03-16T22:37:41.434Z,66.00
2018-03-16T22:40:07.434Z,65.00
2018-03-16T22:42:33.558Z,64.60
2018-03-16T22:44:59.534Z,65.00
2018-03-16T22:47:26.280Z,67.20
2018-03-16T22:49:52.256Z,67.10
2018-03-16T22:52:18.392Z,67.20
2018-03-16T22:54:44.368Z,66.50
2018-03-16T22:57:10.320Z,67.00
2018-03-16T22:59:36.301Z,67.50
2018-03-16T23:02:02.251Z,67.50
2018-03-16T23:04:28.294Z,66.50
2018-03-16T23:06:54.296Z,66.00
2018-03-16T23:09:20.411Z,66.50
2018-03-16T23:11:46.399Z,66.00
2018-03-16T23:14:13.230Z,65.60
2018-03-16T23:16:40.054Z,66.20
2018-03-16T23:19:06.015Z,65.60
2018-03-16T23:21:32.017Z,67.20
2018-03-16T23:23:57.970Z,67.30
2018-03-16T23:26:23.983Z,67.00
2018-03-16T23:28:49.920Z,68.90
2018-03-16T23:31:16.068Z,68.50
2018-03-16T23:33:42.036Z,69.20
2018-03-16T23:36:08.734Z,69.20
2018-03-16T23:38:34.749Z,69.20
2018-03-16T23:41:00.703Z,68.30
2018-03-16T23:43:26.693Z,67.70
2018-03-16T23:45:52.649Z,67.70
2018-03-16T23:48:18.755Z,68.00
2018-03-16T23:50:44.700Z,68.10
2018-03-16T23:53:10.678Z,67.90
2018-03-16T23:55:36.629Z,67.40
2018-03-16T23:58:02.581Z,67.20
